sensor_id;sensor_type;location;lat;lon;timestamp;temperature;humidity
51637;DHT22;37713;53.254;6.460;2023-04-06T00:01:11;1.30;99.90
51637;DHT22;37713;53.254;6.460;2023-04-06T00:03:37;1.20;99.90
51637;DHT22;37713;53.254;6.460;2023-04-06T00:06:04;1.20;99.90
51637;DHT22;37713;53.254;6.460;2023-04-06T00:08:30;1.20;99.90
51637;DHT22;37713;53.254;6.460;2023-04-06T00:10:56;1.20;99.90
51637;DHT22;37713;53.254;6.460;2023-04-06T00:13:22;1.30;99.90
51637;DHT22;37713;53.254;6.460;2023-04-06T00:15:47;1.30;99.90
51637;DHT22;37713;53.254;6.460;2023-04-06T00:18:13;1.30;99.90
51637;DHT22;37713;53.254;6.460;2023-04-06T00:20:39;1.30;99.90
51637;DHT22;37713;53.254;6.460;2023-04-06T00:23:05;1.30;99.90
51637;DHT22;37713;53.254;6.460;2023-04-06T00:25:31;1.30;99.90
51637;DHT22;37713;53.254;6.460;2023-04-06T00:27:57;1.30;99.90
51637;DHT22;37713;53.254;6.460;2023-04-06T00:30:23;1.40;99.90
51637;DHT22;37713;53.254;6.460;2023-04-06T00:32:48;1.40;99.90
51637;DHT22;37713;53.254;6.460;2023-04-06T00:35:14;1.40;99.90
51637;DHT22;37713;53.254;6.460;2023-04-06T00:37:41;1.30;99.90
51637;DHT22;37713;53.254;6.460;2023-04-06T00:40:08;1.30;99.90
51637;DHT22;37713;53.254;6.460;2023-04-06T00:42:34;1.30;99.90
51637;DHT22;37713;53.254;6.460;2023-04-06T00:45:01;1.30;99.90
51637;DHT22;37713;53.254;6.460;2023-04-06T00:47:27;1.30;99.90
51637;DHT22;37713;53.254;6.460;2023-04-06T00:49:54;1.30;99.90
51637;DHT22;37713;53.254;6.460;2023-04-06T00:52:21;1.30;99.90
51637;DHT22;37713;53.254;6.460;2023-04-06T00:54:46;1.30;99.90
51637;DHT22;37713;53.254;6.460;2023-04-06T00:57:13;1.20;99.90
51637;DHT22;37713;53.254;6.460;2023-04-06T00:59:39;1.20;99.90
51637;DHT22;37713;53.254;6.460;2023-04-06T01:02:06;1.20;99.90
51637;DHT22;37713;53.254;6.460;2023-04-06T01:04:32;1.20;99.90
51637;DHT22;37713;53.254;6.460;2023-04-06T01:06:58;1.20;99.90
51637;DHT22;37713;53.254;6.460;2023-04-06T01:09:24;1.20;99.90
51637;DHT22;37713;53.254;6.460;2023-04-06T01:11:52;1.10;99.90
51637;DHT22;37713;53.254;6.460;2023-04-06T01:14:18;1.10;99.90
51637;DHT22;37713;53.254;6.460;2023-04-06T01:16:44;1.10;99.90
51637;DHT22;37713;53.254;6.460;2023-04-06T01:19:11;1.10;99.90
51637;DHT22;37713;53.254;6.460;2023-04-06T01:21:38;1.10;99.90
51637;DHT22;37713;53.254;6.460;2023-04-06T01:24:04;1.10;99.90
51637;DHT22;37713;53.254;6.460;2023-04-06T01:26:30;1.00;99.90
51637;DHT22;37713;53.254;6.460;2023-04-06T01:28:57;1.10;99.90
51637;DHT22;37713;53.254;6.460;2023-04-06T01:31:23;1.10;99.90
51637;DHT22;37713;53.254;6.460;2023-04-06T01:33:49;1.00;99.90
51637;DHT22;37713;53.254;6.460;2023-04-06T01:36:16;1.00;99.90
51637;DHT22;37713;53.254;6.460;2023-04-06T01:38:42;1.00;99.90
51637;DHT22;37713;53.254;6.460;2023-04-06T01:41:08;1.00;99.90
51637;DHT22;37713;53.254;6.460;2023-04-06T01:43:34;1.00;99.90
51637;DHT22;37713;53.254;6.460;2023-04-06T01:46:01;0.90;99.90
51637;DHT22;37713;53.254;6.460;2023-04-06T01:48:27;0.90;99.90
51637;DHT22;37713;53.254;6.460;2023-04-06T01:50:54;0.90;99.90
51637;DHT22;37713;53.254;6.460;2023-04-06T01:53:20;0.90;99.90
51637;DHT22;37713;53.254;6.460;2023-04-06T01:55:46;0.80;99.90
51637;DHT22;37713;53.254;6.460;2023-04-06T01:58:12;0.80;99.90
51637;DHT22;37713;53.254;6.460;2023-04-06T02:00:38;0.80;99.90
51637;DHT22;37713;53.254;6.460;2023-04-06T02:03:04;0.80;99.90
51637;DHT22;37713;53.254;6.460;2023-04-06T02:05:32;0.70;99.90
51637;DHT22;37713;53.254;6.460;2023-04-06T02:08:04;0.70;99.90
51637;DHT22;37713;53.254;6.460;2023-04-06T02:10:31;0.70;99.90
51637;DHT22;37713;53.254;6.460;2023-04-06T02:12:57;0.70;99.90
51637;DHT22;37713;53.254;6.460;2023-04-06T02:15:23;0.70;99.90
51637;DHT22;37713;53.254;6.460;2023-04-06T02:17:49;0.60;99.90
51637;DHT22;37713;53.254;6.460;2023-04-06T02:20:15;0.60;99.90
51637;DHT22;37713;53.254;6.460;2023-04-06T02:22:40;0.60;99.90
51637;DHT22;37713;53.254;6.460;2023-04-06T02:25:07;0.60;99.90
51637;DHT22;37713;53.254;6.460;2023-04-06T02:27:33;0.50;99.90
51637;DHT22;37713;53.254;6.460;2023-04-06T02:29:59;0.50;99.90
51637;DHT22;37713;53.254;6.460;2023-04-06T02:32:25;0.50;99.90
51637;DHT22;37713;53.254;6.460;2023-04-06T02:34:51;0.40;99.90
51637;DHT22;37713;53.254;6.460;2023-04-06T02:37:17;0.40;99.90
51637;DHT22;37713;53.254;6.460;2023-04-06T02:39:43;0.30;99.90
51637;DHT22;37713;53.254;6.460;2023-04-06T02:42:09;0.30;99.90
51637;DHT22;37713;53.254;6.460;2023-04-06T02:44:35;0.30;99.90
51637;DHT22;37713;53.254;6.460;2023-04-06T02:47:01;0.30;99.90
51637;DHT22;37713;53.254;6.460;2023-04-06T02:49:26;0.30;99.90
51637;DHT22;37713;53.254;6.460;2023-04-06T02:51:52;0.30;99.90
51637;DHT22;37713;53.254;6.460;2023-04-06T02:54:18;0.20;99.90
51637;DHT22;37713;53.254;6.460;2023-04-06T02:56:44;0.20;99.90
51637;DHT22;37713;53.254;6.460;2023-04-06T02:59:10;0.20;99.90
51637;DHT22;37713;53.254;6.460;2023-04-06T03:01:36;0.20;99.90
51637;DHT22;37713;53.254;6.460;2023-04-06T03:04:02;0.10;99.90
51637;DHT22;37713;53.254;6.460;2023-04-06T03:06:28;0.10;99.90
51637;DHT22;37713;53.254;6.460;2023-04-06T03:08:56;0.10;99.90
51637;DHT22;37713;53.254;6.460;2023-04-06T03:11:21;0.10;99.90
51637;DHT22;37713;53.254;6.460;2023-04-06T03:13:47;0.10;99.90
51637;DHT22;37713;53.254;6.460;2023-04-06T03:16:13;0.00;99.90
51637;DHT22;37713;53.254;6.460;2023-04-06T03:18:39;0.00;99.90
51637;DHT22;37713;53.254;6.460;2023-04-06T03:21:05;0.00;99.90
51637;DHT22;37713;53.254;6.460;2023-04-06T03:23:30;0.00;99.90
51637;DHT22;37713;53.254;6.460;2023-04-06T03:25:56;0.00;99.90
51637;DHT22;37713;53.254;6.460;2023-04-06T03:28:22;0.00;99.90
51637;DHT22;37713;53.254;6.460;2023-04-06T03:30:49;0.00;99.90
51637;DHT22;37713;53.254;6.460;2023-04-06T03:33:15;0.00;99.90
51637;DHT22;37713;53.254;6.460;2023-04-06T03:35:41;0.00;99.90
51637;DHT22;37713;53.254;6.460;2023-04-06T03:38:07;0.00;99.90
51637;DHT22;37713;53.254;6.460;2023-04-06T03:40:32;0.00;99.90
51637;DHT22;37713;53.254;6.460;2023-04-06T03:42:58;0.00;99.90
51637;DHT22;37713;53.254;6.460;2023-04-06T03:45:24;0.20;99.90
51637;DHT22;37713;53.254;6.460;2023-04-06T03:47:50;-0.10;99.90
51637;DHT22;37713;53.254;6.460;2023-04-06T03:50:16;-0.10;99.90
51637;DHT22;37713;53.254;6.460;2023-04-06T03:52:42;-0.10;99.90
51637;DHT22;37713;53.254;6.460;2023-04-06T03:55:08;-0.10;99.90
51637;DHT22;37713;53.254;6.460;2023-04-06T03:57:34;-0.10;99.90
51637;DHT22;37713;53.254;6.460;2023-04-06T04:00:00;-0.20;99.90
51637;DHT22;37713;53.254;6.460;2023-04-06T04:02:26;-0.10;99.90
51637;DHT22;37713;53.254;6.460;2023-04-06T04:04:52;-0.10;99.90
51637;DHT22;37713;53.254;6.460;2023-04-06T04:07:17;-0.10;99.90
51637;DHT22;37713;53.254;6.460;2023-04-06T04:09:43;-0.10;99.90
51637;DHT22;37713;53.254;6.460;2023-04-06T04:12:09;-0.10;99.90
51637;DHT22;37713;53.254;6.460;2023-04-06T04:14:35;-0.10;99.90
51637;DHT22;37713;53.254;6.460;2023-04-06T04:17:01;-0.10;99.90
51637;DHT22;37713;53.254;6.460;2023-04-06T04:19:26;-0.10;99.90
51637;DHT22;37713;53.254;6.460;2023-04-06T04:21:52;-0.20;99.90
51637;DHT22;37713;53.254;6.460;2023-04-06T04:24:18;-0.20;99.90
51637;DHT22;37713;53.254;6.460;2023-04-06T04:26:44;-0.20;99.90
51637;DHT22;37713;53.254;6.460;2023-04-06T04:29:10;-0.20;99.90
51637;DHT22;37713;53.254;6.460;2023-04-06T04:31:37;-0.20;99.90
51637;DHT22;37713;53.254;6.460;2023-04-06T04:34:03;-0.20;99.90
51637;DHT22;37713;53.254;6.460;2023-04-06T04:36:29;-0.30;99.90
51637;DHT22;37713;53.254;6.460;2023-04-06T04:38:55;-0.30;99.90
51637;DHT22;37713;53.254;6.460;2023-04-06T04:41:21;-0.30;99.90
51637;DHT22;37713;53.254;6.460;2023-04-06T04:43:47;-0.30;99.90
51637;DHT22;37713;53.254;6.460;2023-04-06T04:46:12;-0.30;99.90
51637;DHT22;37713;53.254;6.460;2023-04-06T04:48:38;-0.40;99.90
51637;DHT22;37713;53.254;6.460;2023-04-06T04:51:04;-0.40;99.90
51637;DHT22;37713;53.254;6.460;2023-04-06T04:53:31;-0.40;99.90
51637;DHT22;37713;53.254;6.460;2023-04-06T04:55:57;-0.40;99.90
51637;DHT22;37713;53.254;6.460;2023-04-06T04:58:22;-0.40;99.90
51637;DHT22;37713;53.254;6.460;2023-04-06T05:00:48;-0.40;99.90
51637;DHT22;37713;53.254;6.460;2023-04-06T05:03:24;-0.40;99.90
51637;DHT22;37713;53.254;6.460;2023-04-06T05:05:50;-0.40;99.90
51637;DHT22;37713;53.254;6.460;2023-04-06T05:08:16;-0.40;99.90
51637;DHT22;37713;53.254;6.460;2023-04-06T05:10:42;-0.40;99.90
51637;DHT22;37713;53.254;6.460;2023-04-06T05:13:08;-0.40;99.90
51637;DHT22;37713;53.254;6.460;2023-04-06T05:15:34;-0.30;99.90
51637;DHT22;37713;53.254;6.460;2023-04-06T05:18:00;-0.30;99.90
51637;DHT22;37713;53.254;6.460;2023-04-06T05:20:27;-0.30;99.90
51637;DHT22;37713;53.254;6.460;2023-04-06T05:22:53;-0.30;99.90
51637;DHT22;37713;53.254;6.460;2023-04-06T05:25:19;-0.30;99.90
51637;DHT22;37713;53.254;6.460;2023-04-06T05:27:45;-0.20;99.90
51637;DHT22;37713;53.254;6.460;2023-04-06T05:30:11;-0.20;99.90
51637;DHT22;37713;53.254;6.460;2023-04-06T05:32:37;-0.10;99.90
51637;DHT22;37713;53.254;6.460;2023-04-06T05:35:04;0.00;99.90
51637;DHT22;37713;53.254;6.460;2023-04-06T05:37:29;0.00;99.90
51637;DHT22;37713;53.254;6.460;2023-04-06T05:39:55;0.10;99.90
51637;DHT22;37713;53.254;6.460;2023-04-06T05:42:22;0.10;99.90
51637;DHT22;37713;53.254;6.460;2023-04-06T05:44:48;0.20;99.90
51637;DHT22;37713;53.254;6.460;2023-04-06T05:47:14;0.30;99.90
51637;DHT22;37713;53.254;6.460;2023-04-06T05:49:42;0.30;99.90
51637;DHT22;37713;53.254;6.460;2023-04-06T05:52:08;0.40;99.90
51637;DHT22;37713;53.254;6.460;2023-04-06T05:54:36;0.40;99.90
51637;DHT22;37713;53.254;6.460;2023-04-06T05:57:03;0.50;99.90
51637;DHT22;37713;53.254;6.460;2023-04-06T05:59:32;0.60;99.90
51637;DHT22;37713;53.254;6.460;2023-04-06T06:01:57;0.70;99.90
51637;DHT22;37713;53.254;6.460;2023-04-06T06:04:23;0.80;99.90
51637;DHT22;37713;53.254;6.460;2023-04-06T06:06:49;0.80;99.90
51637;DHT22;37713;53.254;6.460;2023-04-06T06:09:15;0.90;99.90
51637;DHT22;37713;53.254;6.460;2023-04-06T06:11:41;1.20;99.90
51637;DHT22;37713;53.254;6.460;2023-04-06T06:14:07;1.70;99.90
51637;DHT22;37713;53.254;6.460;2023-04-06T06:16:33;2.20;99.90
51637;DHT22;37713;53.254;6.460;2023-04-06T06:18:59;2.70;99.90
51637;DHT22;37713;53.254;6.460;2023-04-06T06:21:25;3.10;99.90
51637;DHT22;37713;53.254;6.460;2023-04-06T06:23:52;3.50;99.90
51637;DHT22;37713;53.254;6.460;2023-04-06T06:26:19;3.70;99.90
51637;DHT22;37713;53.254;6.460;2023-04-06T06:28:45;3.90;99.90
51637;DHT22;37713;53.254;6.460;2023-04-06T06:31:11;4.00;99.90
51637;DHT22;37713;53.254;6.460;2023-04-06T06:33:38;4.30;99.90
51637;DHT22;37713;53.254;6.460;2023-04-06T06:36:04;4.40;99.90
51637;DHT22;37713;53.254;6.460;2023-04-06T06:38:30;4.70;99.90
51637;DHT22;37713;53.254;6.460;2023-04-06T06:40:56;5.20;99.90
51637;DHT22;37713;53.254;6.460;2023-04-06T06:43:21;6.30;99.90
51637;DHT22;37713;53.254;6.460;2023-04-06T06:45:47;6.90;99.90
51637;DHT22;37713;53.254;6.460;2023-04-06T06:48:13;7.30;99.90
51637;DHT22;37713;53.254;6.460;2023-04-06T06:50:39;7.40;99.90
51637;DHT22;37713;53.254;6.460;2023-04-06T06:53:05;7.50;99.90
51637;DHT22;37713;53.254;6.460;2023-04-06T06:55:31;7.80;99.90
51637;DHT22;37713;53.254;6.460;2023-04-06T06:57:57;8.20;99.90
51637;DHT22;37713;53.254;6.460;2023-04-06T07:00:23;8.70;99.90
51637;DHT22;37713;53.254;6.460;2023-04-06T07:02:49;9.30;99.90
51637;DHT22;37713;53.254;6.460;2023-04-06T07:05:16;10.20;99.90
51637;DHT22;37713;53.254;6.460;2023-04-06T07:07:41;11.10;99.90
51637;DHT22;37713;53.254;6.460;2023-04-06T07:10:08;11.90;99.90
51637;DHT22;37713;53.254;6.460;2023-04-06T07:12:34;12.20;99.90
51637;DHT22;37713;53.254;6.460;2023-04-06T07:15:00;12.60;99.90
51637;DHT22;37713;53.254;6.460;2023-04-06T07:17:26;13.10;99.90
51637;DHT22;37713;53.254;6.460;2023-04-06T07:19:52;13.20;99.90
51637;DHT22;37713;53.254;6.460;2023-04-06T07:22:18;13.30;99.90
51637;DHT22;37713;53.254;6.460;2023-04-06T07:24:43;13.40;99.90
51637;DHT22;37713;53.254;6.460;2023-04-06T07:27:09;12.90;99.90
51637;DHT22;37713;53.254;6.460;2023-04-06T07:29:35;12.70;99.90
51637;DHT22;37713;53.254;6.460;2023-04-06T07:32:01;12.60;99.90
51637;DHT22;37713;53.254;6.460;2023-04-06T07:34:27;12.10;99.90
51637;DHT22;37713;53.254;6.460;2023-04-06T07:36:53;11.50;99.90
51637;DHT22;37713;53.254;6.460;2023-04-06T07:39:20;11.30;99.90
51637;DHT22;37713;53.254;6.460;2023-04-06T07:41:46;11.30;99.90
51637;DHT22;37713;53.254;6.460;2023-04-06T07:44:11;10.90;99.90
51637;DHT22;37713;53.254;6.460;2023-04-06T07:46:37;10.50;99.90
51637;DHT22;37713;53.254;6.460;2023-04-06T07:49:03;10.00;99.90
51637;DHT22;37713;53.254;6.460;2023-04-06T07:51:29;9.60;99.90
51637;DHT22;37713;53.254;6.460;2023-04-06T07:53:55;9.20;99.90
51637;DHT22;37713;53.254;6.460;2023-04-06T07:56:21;8.90;99.90
51637;DHT22;37713;53.254;6.460;2023-04-06T07:58:47;8.60;99.90
51637;DHT22;37713;53.254;6.460;2023-04-06T08:01:13;8.60;99.90
51637;DHT22;37713;53.254;6.460;2023-04-06T08:03:39;8.60;99.90
51637;DHT22;37713;53.254;6.460;2023-04-06T08:06:05;8.60;99.90
51637;DHT22;37713;53.254;6.460;2023-04-06T08:08:31;8.60;99.90
51637;DHT22;37713;53.254;6.460;2023-04-06T08:10:57;8.60;99.90
51637;DHT22;37713;53.254;6.460;2023-04-06T08:13:22;8.60;99.90
51637;DHT22;37713;53.254;6.460;2023-04-06T08:15:48;8.70;99.90
51637;DHT22;37713;53.254;6.460;2023-04-06T08:18:14;9.00;99.90
51637;DHT22;37713;53.254;6.460;2023-04-06T08:20:40;9.20;99.90
51637;DHT22;37713;53.254;6.460;2023-04-06T08:23:06;9.50;99.90
51637;DHT22;37713;53.254;6.460;2023-04-06T08:25:34;10.00;99.90
51637;DHT22;37713;53.254;6.460;2023-04-06T08:28:01;10.40;99.90
51637;DHT22;37713;53.254;6.460;2023-04-06T08:30:27;11.00;99.90
51637;DHT22;37713;53.254;6.460;2023-04-06T08:32:53;11.40;99.90
51637;DHT22;37713;53.254;6.460;2023-04-06T08:35:20;11.50;99.90
51637;DHT22;37713;53.254;6.460;2023-04-06T08:37:46;11.50;99.90
51637;DHT22;37713;53.254;6.460;2023-04-06T08:40:12;11.70;99.90
51637;DHT22;37713;53.254;6.460;2023-04-06T08:42:50;11.90;99.90
51637;DHT22;37713;53.254;6.460;2023-04-06T08:45:17;11.90;99.90
51637;DHT22;37713;53.254;6.460;2023-04-06T08:47:48;12.20;99.90
51637;DHT22;37713;53.254;6.460;2023-04-06T08:50:14;12.40;99.90
51637;DHT22;37713;53.254;6.460;2023-04-06T08:52:43;12.50;99.90
51637;DHT22;37713;53.254;6.460;2023-04-06T08:55:09;12.50;99.90
51637;DHT22;37713;53.254;6.460;2023-04-06T08:57:36;12.30;99.90
51637;DHT22;37713;53.254;6.460;2023-04-06T09:00:02;12.50;99.90
51637;DHT22;37713;53.254;6.460;2023-04-06T09:02:28;12.20;99.90
51637;DHT22;37713;53.254;6.460;2023-04-06T09:04:54;12.20;99.90
51637;DHT22;37713;53.254;6.460;2023-04-06T09:07:21;12.20;99.90
51637;DHT22;37713;53.254;6.460;2023-04-06T09:09:47;12.20;99.90
51637;DHT22;37713;53.254;6.460;2023-04-06T09:14:49;12.20;99.90
51637;DHT22;37713;53.254;6.460;2023-04-06T09:17:26;12.00;99.90
51637;DHT22;37713;53.254;6.460;2023-04-06T09:19:52;11.90;99.90
51637;DHT22;37713;53.254;6.460;2023-04-06T09:22:18;11.90;99.90
51637;DHT22;37713;53.254;6.460;2023-04-06T09:24:52;11.80;99.90
51637;DHT22;37713;53.254;6.460;2023-04-06T09:27:18;11.70;99.90
51637;DHT22;37713;53.254;6.460;2023-04-06T09:32:32;11.60;99.90
51637;DHT22;37713;53.254;6.460;2023-04-06T09:35:08;11.60;99.90
51637;DHT22;37713;53.254;6.460;2023-04-06T09:37:34;11.70;99.90
51637;DHT22;37713;53.254;6.460;2023-04-06T09:40:07;11.60;99.90
51637;DHT22;37713;53.254;6.460;2023-04-06T09:42:34;11.70;99.90
51637;DHT22;37713;53.254;6.460;2023-04-06T09:45:01;11.70;99.90
51637;DHT22;37713;53.254;6.460;2023-04-06T09:47:27;11.60;99.90
51637;DHT22;37713;53.254;6.460;2023-04-06T09:49:56;11.60;99.90
51637;DHT22;37713;53.254;6.460;2023-04-06T09:52:31;11.60;99.90
51637;DHT22;37713;53.254;6.460;2023-04-06T09:55:02;11.60;99.90
51637;DHT22;37713;53.254;6.460;2023-04-06T09:57:52;11.60;99.90
51637;DHT22;37713;53.254;6.460;2023-04-06T10:00:22;11.70;99.90
51637;DHT22;37713;53.254;6.460;2023-04-06T10:03:11;11.80;99.90
51637;DHT22;37713;53.254;6.460;2023-04-06T10:08:08;11.90;99.90
51637;DHT22;37713;53.254;6.460;2023-04-06T10:10:36;11.90;99.90
51637;DHT22;37713;53.254;6.460;2023-04-06T10:13:02;12.00;99.90
51637;DHT22;37713;53.254;6.460;2023-04-06T10:15:29;12.00;99.90
51637;DHT22;37713;53.254;6.460;2023-04-06T10:17:56;12.10;99.90
51637;DHT22;37713;53.254;6.460;2023-04-06T10:25:33;12.30;99.90
51637;DHT22;37713;53.254;6.460;2023-04-06T10:28:05;12.20;99.90
51637;DHT22;37713;53.254;6.460;2023-04-06T10:30:33;12.30;99.90
51637;DHT22;37713;53.254;6.460;2023-04-06T10:32:59;12.20;99.90
51637;DHT22;37713;53.254;6.460;2023-04-06T10:35:36;12.30;99.90
51637;DHT22;37713;53.254;6.460;2023-04-06T10:38:04;12.40;99.90
51637;DHT22;37713;53.254;6.460;2023-04-06T10:40:30;12.40;99.90
51637;DHT22;37713;53.254;6.460;2023-04-06T10:43:08;12.50;99.90
51637;DHT22;37713;53.254;6.460;2023-04-06T10:45:34;12.50;99.90
51637;DHT22;37713;53.254;6.460;2023-04-06T10:48:00;12.50;99.90
51637;DHT22;37713;53.254;6.460;2023-04-06T10:50:25;12.60;99.90
51637;DHT22;37713;53.254;6.460;2023-04-06T10:53:02;12.70;99.90
51637;DHT22;37713;53.254;6.460;2023-04-06T10:55:29;12.70;99.90
51637;DHT22;37713;53.254;6.460;2023-04-06T10:57:56;12.60;99.90
51637;DHT22;37713;53.254;6.460;2023-04-06T11:00:22;12.60;99.90
51637;DHT22;37713;53.254;6.460;2023-04-06T11:02:48;12.60;99.90
51637;DHT22;37713;53.254;6.460;2023-04-06T11:05:14;12.70;99.90
51637;DHT22;37713;53.254;6.460;2023-04-06T11:07:41;12.70;99.90
51637;DHT22;37713;53.254;6.460;2023-04-06T11:10:08;12.80;99.90
51637;DHT22;37713;53.254;6.460;2023-04-06T11:12:34;12.80;99.90
51637;DHT22;37713;53.254;6.460;2023-04-06T11:15:02;12.80;99.90
51637;DHT22;37713;53.254;6.460;2023-04-06T11:17:35;12.90;99.90
51637;DHT22;37713;53.254;6.460;2023-04-06T11:20:03;12.90;99.90
51637;DHT22;37713;53.254;6.460;2023-04-06T11:22:30;13.00;99.90
51637;DHT22;37713;53.254;6.460;2023-04-06T11:25:06;13.10;99.90
51637;DHT22;37713;53.254;6.460;2023-04-06T11:27:34;13.20;99.90
51637;DHT22;37713;53.254;6.460;2023-04-06T11:30:00;13.20;99.90
51637;DHT22;37713;53.254;6.460;2023-04-06T11:32:26;13.30;99.90
51637;DHT22;37713;53.254;6.460;2023-04-06T11:34:52;13.40;99.90
51637;DHT22;37713;53.254;6.460;2023-04-06T11:37:18;13.40;99.90
51637;DHT22;37713;53.254;6.460;2023-04-06T11:39:52;13.40;99.90
51637;DHT22;37713;53.254;6.460;2023-04-06T11:42:23;13.50;99.90
51637;DHT22;37713;53.254;6.460;2023-04-06T11:44:51;13.60;99.90
51637;DHT22;37713;53.254;6.460;2023-04-06T11:47:18;13.70;99.90
51637;DHT22;37713;53.254;6.460;2023-04-06T11:49:45;13.70;99.90
51637;DHT22;37713;53.254;6.460;2023-04-06T11:54:42;13.70;99.90
51637;DHT22;37713;53.254;6.460;2023-04-06T11:57:09;13.60;99.90
51637;DHT22;37713;53.254;6.460;2023-04-06T11:59:35;13.50;99.90
51637;DHT22;37713;53.254;6.460;2023-04-06T12:02:02;13.50;99.90
51637;DHT22;37713;53.254;6.460;2023-04-06T12:04:28;13.60;99.90
51637;DHT22;37713;53.254;6.460;2023-04-06T12:06:54;13.60;99.90
51637;DHT22;37713;53.254;6.460;2023-04-06T12:09:20;13.60;99.90
51637;DHT22;37713;53.254;6.460;2023-04-06T12:11:46;13.60;99.90
51637;DHT22;37713;53.254;6.460;2023-04-06T12:14:12;13.60;99.90
51637;DHT22;37713;53.254;6.460;2023-04-06T12:16:39;13.60;99.90
51637;DHT22;37713;53.254;6.460;2023-04-06T12:19:05;13.60;99.90
51637;DHT22;37713;53.254;6.460;2023-04-06T12:21:32;13.50;99.90
51637;DHT22;37713;53.254;6.460;2023-04-06T12:23:59;13.50;99.90
51637;DHT22;37713;53.254;6.460;2023-04-06T12:26:26;13.30;99.90
51637;DHT22;37713;53.254;6.460;2023-04-06T12:28:52;13.40;99.90
51637;DHT22;37713;53.254;6.460;2023-04-06T12:31:20;13.30;99.90
51637;DHT22;37713;53.254;6.460;2023-04-06T12:33:47;13.20;99.90
51637;DHT22;37713;53.254;6.460;2023-04-06T12:36:14;13.10;99.90
51637;DHT22;37713;53.254;6.460;2023-04-06T12:38:41;13.10;99.90
51637;DHT22;37713;53.254;6.460;2023-04-06T12:41:07;13.00;99.90
51637;DHT22;37713;53.254;6.460;2023-04-06T12:43:33;13.00;99.90
51637;DHT22;37713;53.254;6.460;2023-04-06T12:45:59;13.00;99.90
51637;DHT22;37713;53.254;6.460;2023-04-06T12:48:25;13.00;99.90
51637;DHT22;37713;53.254;6.460;2023-04-06T12:51:00;13.00;99.90
51637;DHT22;37713;53.254;6.460;2023-04-06T12:53:27;12.90;99.90
51637;DHT22;37713;53.254;6.460;2023-04-06T12:55:57;12.90;99.90
51637;DHT22;37713;53.254;6.460;2023-04-06T12:58:24;12.90;99.90
51637;DHT22;37713;53.254;6.460;2023-04-06T13:00:54;12.90;99.90
51637;DHT22;37713;53.254;6.460;2023-04-06T13:03:21;13.00;99.90
51637;DHT22;37713;53.254;6.460;2023-04-06T13:05:50;13.00;99.90
51637;DHT22;37713;53.254;6.460;2023-04-06T13:08:18;13.10;99.90
51637;DHT22;37713;53.254;6.460;2023-04-06T13:10:48;13.00;99.90
51637;DHT22;37713;53.254;6.460;2023-04-06T13:13:14;12.90;99.90
51637;DHT22;37713;53.254;6.460;2023-04-06T13:15:40;12.90;99.90
51637;DHT22;37713;53.254;6.460;2023-04-06T13:18:07;12.90;99.90
51637;DHT22;37713;53.254;6.460;2023-04-06T13:20:33;12.90;99.90
51637;DHT22;37713;53.254;6.460;2023-04-06T13:22:59;12.90;99.90
51637;DHT22;37713;53.254;6.460;2023-04-06T13:25:24;13.00;99.90
51637;DHT22;37713;53.254;6.460;2023-04-06T13:27:50;12.90;99.90
51637;DHT22;37713;53.254;6.460;2023-04-06T13:30:16;12.90;99.90
51637;DHT22;37713;53.254;6.460;2023-04-06T13:32:42;12.90;99.90
51637;DHT22;37713;53.254;6.460;2023-04-06T13:35:08;12.90;99.90
51637;DHT22;37713;53.254;6.460;2023-04-06T13:37:35;12.90;99.90
51637;DHT22;37713;53.254;6.460;2023-04-06T13:40:02;13.00;99.90
51637;DHT22;37713;53.254;6.460;2023-04-06T13:42:28;13.00;99.90
51637;DHT22;37713;53.254;6.460;2023-04-06T13:44:55;13.00;99.90
51637;DHT22;37713;53.254;6.460;2023-04-06T13:47:20;13.00;99.90
51637;DHT22;37713;53.254;6.460;2023-04-06T13:49:47;13.00;99.90
51637;DHT22;37713;53.254;6.460;2023-04-06T13:52:13;13.10;99.90
51637;DHT22;37713;53.254;6.460;2023-04-06T13:54:38;13.10;99.90
51637;DHT22;37713;53.254;6.460;2023-04-06T13:57:04;13.20;99.90
51637;DHT22;37713;53.254;6.460;2023-04-06T13:59:33;13.10;99.90
51637;DHT22;37713;53.254;6.460;2023-04-06T14:02:00;13.10;99.90
51637;DHT22;37713;53.254;6.460;2023-04-06T14:04:26;13.20;99.90
51637;DHT22;37713;53.254;6.460;2023-04-06T14:06:51;13.30;99.90
51637;DHT22;37713;53.254;6.460;2023-04-06T14:09:18;13.30;99.90
51637;DHT22;37713;53.254;6.460;2023-04-06T14:11:44;13.40;99.90
51637;DHT22;37713;53.254;6.460;2023-04-06T14:14:10;13.60;99.90
51637;DHT22;37713;53.254;6.460;2023-04-06T14:16:35;13.60;99.90
51637;DHT22;37713;53.254;6.460;2023-04-06T14:19:01;13.80;99.90
51637;DHT22;37713;53.254;6.460;2023-04-06T14:21:28;13.80;99.90
51637;DHT22;37713;53.254;6.460;2023-04-06T14:23:54;13.70;99.90
51637;DHT22;37713;53.254;6.460;2023-04-06T14:26:20;13.70;99.90
51637;DHT22;37713;53.254;6.460;2023-04-06T14:28:46;13.70;99.90
51637;DHT22;37713;53.254;6.460;2023-04-06T14:31:15;13.50;99.90
51637;DHT22;37713;53.254;6.460;2023-04-06T14:33:42;13.40;99.90
51637;DHT22;37713;53.254;6.460;2023-04-06T14:36:08;13.40;99.90
51637;DHT22;37713;53.254;6.460;2023-04-06T14:38:34;13.40;99.90
51637;DHT22;37713;53.254;6.460;2023-04-06T14:41:01;13.30;99.90
51637;DHT22;37713;53.254;6.460;2023-04-06T14:43:27;13.20;99.90
51637;DHT22;37713;53.254;6.460;2023-04-06T14:45:53;13.10;99.90
51637;DHT22;37713;53.254;6.460;2023-04-06T14:48:19;12.80;99.90
51637;DHT22;37713;53.254;6.460;2023-04-06T14:50:55;12.70;99.90
51637;DHT22;37713;53.254;6.460;2023-04-06T14:53:25;12.60;99.90
51637;DHT22;37713;53.254;6.460;2023-04-06T14:55:52;12.50;99.90
51637;DHT22;37713;53.254;6.460;2023-04-06T14:58:18;12.30;99.90
51637;DHT22;37713;53.254;6.460;2023-04-06T15:00:44;12.20;99.90
51637;DHT22;37713;53.254;6.460;2023-04-06T15:03:10;12.10;99.90
51637;DHT22;37713;53.254;6.460;2023-04-06T15:05:36;12.10;99.90
51637;DHT22;37713;53.254;6.460;2023-04-06T15:08:02;12.00;99.90
51637;DHT22;37713;53.254;6.460;2023-04-06T15:10:31;11.90;99.90
51637;DHT22;37713;53.254;6.460;2023-04-06T15:12:57;11.80;99.90
51637;DHT22;37713;53.254;6.460;2023-04-06T15:15:23;11.70;99.90
51637;DHT22;37713;53.254;6.460;2023-04-06T15:17:49;11.60;99.90
51637;DHT22;37713;53.254;6.460;2023-04-06T15:20:14;11.40;99.90
51637;DHT22;37713;53.254;6.460;2023-04-06T15:22:40;11.40;99.90
51637;DHT22;37713;53.254;6.460;2023-04-06T15:25:07;11.30;99.90
51637;DHT22;37713;53.254;6.460;2023-04-06T15:27:33;11.30;99.90
51637;DHT22;37713;53.254;6.460;2023-04-06T15:29:59;11.20;99.90
51637;DHT22;37713;53.254;6.460;2023-04-06T15:32:25;11.20;99.90
51637;DHT22;37713;53.254;6.460;2023-04-06T15:34:53;11.20;99.90
51637;DHT22;37713;53.254;6.460;2023-04-06T15:37:18;11.10;99.90
51637;DHT22;37713;53.254;6.460;2023-04-06T15:39:44;11.00;99.90
51637;DHT22;37713;53.254;6.460;2023-04-06T15:42:10;10.90;99.90
51637;DHT22;37713;53.254;6.460;2023-04-06T15:44:36;10.90;99.90
51637;DHT22;37713;53.254;6.460;2023-04-06T15:47:02;10.80;99.90
51637;DHT22;37713;53.254;6.460;2023-04-06T15:49:27;10.70;99.90